Time;durP1;ratioP1;P1;durP2;ratioP2;P2;SDS_P1;SDS_P2;PMS_P1;PMS_P2;Temp;Humidity;BMP_temperature;BMP_pressure;BME280_temperature;BME280_humidity;BME280_pressure;Samples;Min_cycle;Max_cycle;Signal;HPM_P1;HPM_P2
2022/06/30 00:01:21;;;;;;;;;;;;;;;23.41;48.94;99476.22;3154538;28;19923;-66
2022/06/30 00:02:53;;;;;;;;;;;;;;;23.37;48.95;99479.19;3158385;28;19990;-66
2022/06/30 00:04:24;;;;;;;;;;;;;;;23.33;49.10;99474.34;3157972;28;19928;-66
2022/06/30 00:05:56;;;;;;;;;;;;;;;23.31;49.10;99473.69;3157798;28;19924;-66
2022/06/30 00:07:27;;;;;;;;;;;;;;;23.28;49.30;99469.53;3157918;28;19940;-66
2022/06/30 00:09:00;;;;;;;;;;;;;;;23.25;49.52;99475.16;3157821;28;19924;-66
2022/06/30 00:10:32;;;;;;;;;;;;;;;23.26;49.56;99473.31;3157921;28;19923;-66
2022/06/30 00:12:04;;;;;;;;;;;;;;;23.21;49.57;99472.97;3158058;28;19920;-66
2022/06/30 00:13:37;;;;;;;;;;;;;;;23.19;49.74;99475.78;3157763;28;19985;-66
2022/06/30 00:15:09;;;;;;;;;;;;;;;23.18;49.45;99471.44;3164141;28;20010;-66
2022/06/30 00:16:41;;;;;;;;;;;;;;;23.15;49.59;99472.59;3157813;28;20429;-67
2022/06/30 00:18:13;;;;;;;;;;;;;;;23.17;49.36;99475.09;3152765;28;20000;-66
2022/06/30 00:19:45;;;;;;;;;;;;;;;23.19;49.30;99469.63;3158232;28;19924;-66
2022/06/30 00:21:17;;;;;;;;;;;;;;;23.20;49.29;99471.31;3158039;28;19928;-66
2022/06/30 00:22:47;;;;;;;;;;;;;;;23.17;49.69;99473.28;3151082;28;20308;-65
2022/06/30 00:24:19;;;;;;;;;;;;;;;23.16;49.75;99474.28;3157478;28;19946;-66
2022/06/30 00:25:50;;;;;;;;;;;;;;;23.17;49.51;99470.63;3157748;28;19926;-66
2022/06/30 00:27:22;;;;;;;;;;;;;;;23.16;49.90;99473.44;3157866;28;20281;-66
2022/06/30 00:28:55;;;;;;;;;;;;;;;23.14;49.80;99478.91;3163864;28;19920;-65
2022/06/30 00:30:27;;;;;;;;;;;;;;;23.15;49.83;99477.91;3156859;28;19935;-65
2022/06/30 00:31:57;;;;;;;;;;;;;;;23.16;49.92;99478.75;3157872;28;19947;-66
2022/06/30 00:33:29;;;;;;;;;;;;;;;23.13;50.11;99484.34;3157779;28;19923;-66
2022/06/30 00:35:01;;;;;;;;;;;;;;;23.14;49.88;99480.72;3157926;28;19931;-66
2022/06/30 00:36:32;;;;;;;;;;;;;;;23.10;50.54;99474.91;3157652;28;19927;-66
2022/06/30 00:38:04;;;;;;;;;;;;;;;23.08;50.53;99479.53;3157838;28;19923;-66
2022/06/30 00:39:36;;;;;;;;;;;;;;;23.08;50.95;99478.72;3157587;28;19936;-66
2022/06/30 00:41:07;;;;;;;;;;;;;;;23.07;50.53;99479.69;3158015;28;19973;-66
2022/06/30 00:42:39;;;;;;;;;;;;;;;23.07;50.59;99488.50;3157585;28;20038;-65
2022/06/30 00:44:13;;;;;;;;;;;;;;;23.07;51.00;99479.69;3159415;28;19990;-66
2022/06/30 00:45:45;;;;;;;;;;;;;;;23.03;51.30;99483.66;3157885;28;20094;-66
2022/06/30 00:47:17;;;;;;;;;;;;;;;23.00;51.02;99481.31;3157322;28;19927;-65
2022/06/30 00:48:49;;;;;;;;;;;;;;;22.99;51.48;99479.66;3158062;28;19932;-66
2022/06/30 00:50:20;;;;;;;;;;;;;;;22.98;51.75;99472.66;3157758;28;19977;-66
2022/06/30 00:51:51;;;;;;;;;;;;;;;22.91;52.12;99473.25;3156813;28;20322;-66
2022/06/30 00:53:25;;;;;;;;;;;;;;;22.84;52.85;99474.06;3157798;28;19920;-66
2022/06/30 00:54:57;;;;;;;;;;;;;;;22.74;53.18;99479.44;3157892;28;20363;-66
2022/06/30 00:56:30;;;;;;;;;;;;;;;22.64;53.91;99470.75;3157529;28;19920;-66
2022/06/30 00:58:03;;;;;;;;;;;;;;;22.53;54.25;99465.69;3157887;28;19989;-65
2022/06/30 00:59:38;;;;;;;;;;;;;;;22.44;54.86;99460.31;3161390;28;19924;-66
2022/06/30 01:01:10;;;;;;;;;;;;;;;22.38;54.83;99460.91;3154743;28;19920;-66
2022/06/30 01:02:42;;;;;;;;;;;;;;;22.32;55.12;99466.84;3157495;28;19928;-66
2022/06/30 01:04:14;;;;;;;;;;;;;;;22.27;55.59;99463.81;3157114;28;20457;-66
2022/06/30 01:05:46;;;;;;;;;;;;;;;22.21;55.42;99467.94;3157090;28;19967;-66
2022/06/30 01:07:19;;;;;;;;;;;;;;;22.19;55.33;99464.59;3157364;28;19927;-66
2022/06/30 01:08:51;;;;;;;;;;;;;;;22.23;55.12;99467.75;3157513;28;19920;-65
2022/06/30 01:14:12;;;;;;;;;;;;;;;22.26;55.51;99464.81;3118627;28;19983;-65
2022/06/30 01:15:45;;;;;;;;;;;;;;;22.24;55.53;99466.75;3118747;28;19988;-65
2022/06/30 01:17:16;;;;;;;;;;;;;;;22.25;55.55;99465.81;3157341;28;19989;-66
2022/06/30 01:18:48;;;;;;;;;;;;;;;22.25;55.51;99473.75;3156585;28;19920;-65
2022/06/30 01:20:23;;;;;;;;;;;;;;;22.23;55.72;99467.75;3157369;28;20047;-65
2022/06/30 01:22:03;;;;;;;;;;;;;;;22.17;56.13;99473.69;3157545;28;19971;-65
2022/06/30 01:23:34;;;;;;;;;;;;;;;22.14;56.38;99477.44;3155375;28;19932;-66
2022/06/30 01:25:07;;;;;;;;;;;;;;;22.15;56.14;99472.94;3157664;28;19924;-67
2022/06/30 01:26:39;;;;;;;;;;;;;;;22.16;55.93;99472.81;3157487;28;19985;-66
2022/06/30 01:28:11;;;;;;;;;;;;;;;22.13;56.10;99472.28;3159468;28;19924;-65
2022/06/30 01:29:41;;;;;;;;;;;;;;;22.07;56.23;99473.72;3160178;28;20454;-65
2022/06/30 01:31:13;;;;;;;;;;;;;;;22.09;56.12;99474.38;3157378;28;20023;-66
2022/06/30 01:32:44;;;;;;;;;;;;;;;22.10;55.79;99464.63;3157318;28;19924;-65
2022/06/30 01:34:16;;;;;;;;;;;;;;;22.10;56.36;99467.28;3157769;28;19972;-66
2022/06/30 01:35:48;;;;;;;;;;;;;;;22.02;56.57;99465.38;3150715;28;20321;-66
2022/06/30 01:37:21;;;;;;;;;;;;;;;21.97;56.97;99465.00;3157185;28;20003;-65
2022/06/30 01:38:52;;;;;;;;;;;;;;;21.95;56.96;99465.16;3157394;28;20405;-66
2022/06/30 01:40:25;;;;;;;;;;;;;;;21.96;56.58;99469.47;3157344;28;20732;-66
2022/06/30 01:41:55;;;;;;;;;;;;;;;21.98;56.26;99469.31;3159305;28;19924;-66
2022/06/30 01:43:27;;;;;;;;;;;;;;;22.02;55.84;99476.00;3160223;28;20404;-66
2022/06/30 01:44:58;;;;;;;;;;;;;;;22.07;56.10;99478.19;3160112;28;20513;-66
2022/06/30 01:46:30;;;;;;;;;;;;;;;22.07;55.90;99468.41;3153012;28;19920;-65
2022/06/30 01:48:01;;;;;;;;;;;;;;;22.11;55.73;99468.94;3158864;28;19989;-66
2022/06/30 01:49:33;;;;;;;;;;;;;;;22.14;55.46;99471.28;3159581;28;19924;-65
2022/06/30 01:51:04;;;;;;;;;;;;;;;22.16;55.62;99464.03;3159828;28;19924;-66
2022/06/30 01:52:36;;;;;;;;;;;;;;;22.15;55.85;99465.81;3159321;28;19924;-65
2022/06/30 01:54:09;;;;;;;;;;;;;;;22.12;55.91;99463.47;3159293;28;19932;-66
2022/06/30 01:55:40;;;;;;;;;;;;;;;22.10;56.24;99472.59;3159444;28;20004;-65
2022/06/30 01:57:12;;;;;;;;;;;;;;;22.04;56.16;99469.56;3159785;28;20265;-66
2022/06/30 01:58:43;;;;;;;;;;;;;;;22.01;56.29;99464.56;3160845;28;20008;-66
2022/06/30 02:00:16;;;;;;;;;;;;;;;22.03;56.20;99470.53;3160594;28;19920;-65
2022/06/30 02:01:47;;;;;;;;;;;;;;;22.02;56.11;99473.34;3157673;28;19992;-66
2022/06/30 02:03:19;;;;;;;;;;;;;;;22.06;55.82;99465.91;3159262;28;19920;-66
2022/06/30 02:04:51;;;;;;;;;;;;;;;22.07;56.04;99471.06;3159357;28;19923;-65
2022/06/30 02:06:22;;;;;;;;;;;;;;;22.03;56.59;99470.53;3159201;28;19999;-65
2022/06/30 02:07:55;;;;;;;;;;;;;;;21.99;56.59;99466.50;3159179;28;19981;-66
2022/06/30 02:09:26;;;;;;;;;;;;;;;21.99;56.21;99466.50;3159264;28;19920;-66
2022/06/30 02:10:57;;;;;;;;;;;;;;;21.99;56.28;99461.22;3159518;28;19920;-65
2022/06/30 02:12:46;;;;;;;;;;;;;;;22.00;56.25;99473.47;3159431;28;19923;-66
2022/06/30 02:14:18;;;;;;;;;;;;;;;22.03;56.05;99467.88;3161473;28;20476;-66
2022/06/30 02:15:50;;;;;;;;;;;;;;;22.06;55.70;99465.91;3160716;28;19927;-66
2022/06/30 02:17:20;;;;;;;;;;;;;;;22.08;55.59;99469.25;3159099;28;19960;-65
2022/06/30 02:18:53;;;;;;;;;;;;;;;22.10;55.84;99467.28;3155995;28;19920;-66
2022/06/30 02:20:24;;;;;;;;;;;;;;;22.10;55.87;99465.47;3159341;28;19920;-65
2022/06/30 02:21:55;;;;;;;;;;;;;;;22.12;55.61;99468.78;3159265;28;19970;-66
2022/06/30 02:23:28;;;;;;;;;;;;;;;22.14;55.84;99461.50;3159342;28;19920;-66
2022/06/30 02:24:58;;;;;;;;;;;;;;;22.13;55.78;99462.50;3159162;28;20055;-66
2022/06/30 02:26:30;;;;;;;;;;;;;;;22.13;55.47;99459.84;3159500;28;19924;-66
2022/06/30 02:28:03;;;;;;;;;;;;;;;22.13;55.51;99467.81;3159806;28;19928;-66
2022/06/30 02:29:33;;;;;;;;;;;;;;;22.13;55.72;99465.16;3162163;28;19930;-65
2022/06/30 02:31:05;;;;;;;;;;;;;;;22.11;56.00;99463.66;3158966;28;19931;-65
2022/06/30 02:32:36;;;;;;;;;;;;;;;22.10;55.99;99467.28;3159249;28;19920;-65
2022/06/30 02:34:07;;;;;;;;;;;;;;;22.11;55.58;99463.66;3159231;28;20014;-66
2022/06/30 02:35:39;;;;;;;;;;;;;;;22.11;55.72;99461.81;3158997;28;19942;-66
2022/06/30 02:37:10;;;;;;;;;;;;;;;22.12;55.76;99460.00;3159098;28;19982;-66
2022/06/30 02:38:43;;;;;;;;;;;;;;;22.12;56.04;99470.59;3159125;28;19920;-65
2022/06/30 02:40:14;;;;;;;;;;;;;;;22.10;56.05;99467.28;3159198;28;19981;-65
2022/06/30 02:41:45;;;;;;;;;;;;;;;22.11;55.62;99472.44;3158834;28;19923;-66
2022/06/30 02:43:16;;;;;;;;;;;;;;;22.10;55.66;99469.94;3159132;28;19919;-66
2022/06/30 02:44:47;;;;;;;;;;;;;;;22.11;55.32;99477.72;3162493;28;19989;-66
2022/06/30 02:46:18;;;;;;;;;;;;;;;22.11;55.32;99469.78;3158613;28;19920;-66
2022/06/30 02:47:50;;;;;;;;;;;;;;;22.12;55.33;99476.72;3159034;28;19930;-66
2022/06/30 02:49:21;;;;;;;;;;;;;;;22.12;55.07;99475.91;3159014;28;19977;-66
2022/06/30 02:50:52;;;;;;;;;;;;;;;22.10;55.09;99483.19;3158918;28;20018;-66
2022/06/30 02:52:24;;;;;;;;;;;;;;;22.10;55.18;99478.72;3158351;28;19920;-66
2022/06/30 02:53:57;;;;;;;;;;;;;;;22.10;55.19;99483.19;3158490;28;19927;-66
2022/06/30 02:55:28;;;;;;;;;;;;;;;22.10;55.00;99480.56;3159111;28;19919;-65
2022/06/30 02:56:59;;;;;;;;;;;;;;;22.07;55.19;99484.34;3158799;28;19920;-66
2022/06/30 02:58:30;;;;;;;;;;;;;;;22.07;55.18;99488.81;3158553;28;19924;-66
2022/06/30 03:00:02;;;;;;;;;;;;;;;22.05;55.22;99488.94;3160636;28;19936;-66
2022/06/30 03:01:34;;;;;;;;;;;;;;;22.01;55.05;99490.25;3157711;28;20289;-66
2022/06/30 03:03:05;;;;;;;;;;;;;;;21.97;55.26;99481.72;3158938;28;19928;-66
2022/06/30 03:04:37;;;;;;;;;;;;;;;21.93;55.20;99490.97;3158817;28;19931;-66
2022/06/30 03:06:08;;;;;;;;;;;;;;;21.90;55.32;99491.28;3158490;28;19943;-65
2022/06/30 03:07:40;;;;;;;;;;;;;;;21.86;55.53;99495.22;3158647;28;19927;-66
2022/06/30 03:09:12;;;;;;;;;;;;;;;21.83;55.29;99495.53;3158799;28;20335;-66
2022/06/30 03:10:43;;;;;;;;;;;;;;;21.79;55.60;99494.13;3158607;28;20026;-66
2022/06/30 03:12:15;;;;;;;;;;;;;;;21.77;55.45;99496.13;3158572;28;19924;-66
2022/06/30 03:13:46;;;;;;;;;;;;;;;21.74;55.61;99494.59;3158625;28;20261;-65
2022/06/30 03:15:18;;;;;;;;;;;;;;;21.73;55.78;99495.56;3160599;28;20411;-65
2022/06/30 03:16:50;;;;;;;;;;;;;;;21.74;55.71;99493.72;3158474;28;19920;-67
2022/06/30 03:18:20;;;;;;;;;;;;;;;21.72;55.93;99495.72;3156031;28;20543;-65
2022/06/30 03:19:52;;;;;;;;;;;;;;;21.71;55.48;99497.53;3158571;28;19920;-66
2022/06/30 03:21:23;;;;;;;;;;;;;;;21.71;55.72;99500.19;3154743;28;20405;-65
2022/06/30 03:22:55;;;;;;;;;;;;;;;21.70;55.60;99500.31;3158635;28;20003;-65
2022/06/30 03:24:28;;;;;;;;;;;;;;;21.70;55.91;99498.50;3158442;28;19928;-66
2022/06/30 03:26:00;;;;;;;;;;;;;;;21.68;55.99;99504.94;3158483;28;19920;-66
2022/06/30 03:27:30;;;;;;;;;;;;;;;21.67;56.13;99505.91;3158384;28;19924;-65
2022/06/30 03:29:02;;;;;;;;;;;;;;;21.66;55.99;99502.44;3158478;28;19920;-66
2022/06/30 03:30:34;;;;;;;;;;;;;;;21.65;56.33;99508.72;3158144;28;19920;-65
2022/06/30 03:32:06;;;;;;;;;;;;;;;21.65;55.91;99499.91;3157845;28;19920;-65
2022/06/30 03:33:37;;;;;;;;;;;;;;;21.66;56.29;99504.25;3158277;28;19927;-65
2022/06/30 03:35:09;;;;;;;;;;;;;;;21.61;57.18;99506.50;3158368;28;19920;-65
2022/06/30 03:36:41;;;;;;;;;;;;;;;21.58;57.12;99500.50;3158126;28;20330;-65
2022/06/30 03:38:12;;;;;;;;;;;;;;;21.61;56.89;99509.16;3158296;28;19920;-65
2022/06/30 03:39:45;;;;;;;;;;;;;;;21.57;58.04;99511.28;3158360;28;20349;-65
2022/06/30 03:41:16;;;;;;;;;;;;;;;21.48;58.96;99509.50;3157750;28;19949;-65
2022/06/30 03:42:48;;;;;;;;;;;;;;;21.44;59.31;99508.94;3158343;28;19920;-65
2022/06/30 03:44:19;;;;;;;;;;;;;;;21.43;59.40;99511.75;3163228;28;19924;-65
2022/06/30 03:45:50;;;;;;;;;;;;;;;21.45;59.38;99509.81;3158406;28;19998;-66
2022/06/30 03:47:22;;;;;;;;;;;;;;;21.49;58.57;99505.88;3158186;28;20064;-66
2022/06/30 03:48:53;;;;;;;;;;;;;;;21.53;58.38;99501.94;3158058;28;20270;-65
2022/06/30 03:50:24;;;;;;;;;;;;;;;21.57;58.02;99512.09;3158272;28;19959;-65
2022/06/30 03:51:55;;;;;;;;;;;;;;;21.61;57.78;99503.84;3158232;28;19928;-66
2022/06/30 03:53:27;;;;;;;;;;;;;;;21.62;58.82;99510.81;3157947;28;20493;-65
2022/06/30 03:55:00;;;;;;;;;;;;;;;21.65;58.99;99515.81;3158154;28;20389;-66
2022/06/30 03:56:31;;;;;;;;;;;;;;;21.67;59.28;99520.00;3157854;28;20339;-66
2022/06/30 03:58:02;;;;;;;;;;;;;;;21.71;59.31;99521.41;3158392;28;20010;-65
2022/06/30 03:59:35;;;;;;;;;;;;;;;21.77;58.94;99527.91;3158978;28;19950;-66
2022/06/30 04:01:06;;;;;;;;;;;;;;;21.84;58.31;99521.03;3157942;28;19971;-66
2022/06/30 04:02:38;;;;;;;;;;;;;;;21.90;57.94;99527.56;3157872;28;19919;-65
2022/06/30 04:04:10;;;;;;;;;;;;;;;21.93;57.70;99525.44;3158057;28;19920;-66
2022/06/30 04:05:41;;;;;;;;;;;;;;;21.96;57.47;99521.66;3157498;28;19924;-65
2022/06/30 04:07:13;;;;;;;;;;;;;;;21.98;57.45;99525.84;3158070;28;19927;-66
2022/06/30 04:08:44;;;;;;;;;;;;;;;22.00;57.39;99529.16;3158150;28;19920;-66
2022/06/30 04:10:18;;;;;;;;;;;;;;;22.05;57.29;99523.41;3157643;28;19928;-66
2022/06/30 04:11:49;;;;;;;;;;;;;;;22.09;57.17;99529.25;3157946;28;19920;-66
2022/06/30 04:13:21;;;;;;;;;;;;;;;22.10;57.11;99526.47;3155073;28;19928;-65
2022/06/30 04:14:52;;;;;;;;;;;;;;;22.13;57.14;99522.69;3160262;28;19931;-66
2022/06/30 04:16:24;;;;;;;;;;;;;;;22.12;57.16;99518.34;3157821;28;19972;-67
2022/06/30 04:17:56;;;;;;;;;;;;;;;22.12;57.41;99518.34;3156181;28;19920;-66
2022/06/30 04:19:27;;;;;;;;;;;;;;;22.11;58.08;99528.13;3158028;28;19924;-65
2022/06/30 04:20:59;;;;;;;;;;;;;;;22.09;58.73;99526.59;3158047;28;20312;-65
2022/06/30 04:22:29;;;;;;;;;;;;;;;22.14;57.74;99540.25;3157550;28;20321;-65
2022/06/30 04:24:01;;;;;;;;;;;;;;;22.18;57.65;99534.53;3157925;28;20045;-65
2022/06/30 04:25:34;;;;;;;;;;;;;;;22.20;57.41;99540.50;3157795;28;19930;-65
2022/06/30 04:27:06;;;;;;;;;;;;;;;22.22;57.42;99540.38;3157997;28;20034;-65
2022/06/30 04:28:38;;;;;;;;;;;;;;;22.20;57.33;99540.50;3159996;28;19920;-65
2022/06/30 04:30:10;;;;;;;;;;;;;;;22.19;57.52;99549.47;3157678;28;19967;-65
2022/06/30 04:33:30;;;;;;;;;;;;;;;22.17;58.35;99543.47;3157934;28;19924;-66
2022/06/30 04:35:02;;;;;;;;;;;;;;;22.23;58.20;99542.03;3157734;28;20416;-65
2022/06/30 04:36:33;;;;;;;;;;;;;;;22.26;57.73;99549.69;3156520;28;20312;-66
2022/06/30 04:38:05;;;;;;;;;;;;;;;22.32;57.63;99538.47;3157602;28;19920;-66
2022/06/30 04:39:36;;;;;;;;;;;;;;;22.35;57.74;99540.00;3151378;28;19928;-65
2022/06/30 04:41:24;;;;;;;;;;;;;;;22.40;57.22;99537.72;3157807;28;19920;-66
2022/06/30 04:42:55;;;;;;;;;;;;;;;22.41;57.12;99540.22;3151718;28;19924;-65
2022/06/30 04:44:26;;;;;;;;;;;;;;;22.46;56.97;99547.72;3162344;28;20292;-66
2022/06/30 04:45:58;;;;;;;;;;;;;;;22.53;56.79;99542.66;3157724;28;19920;-66
2022/06/30 04:47:29;;;;;;;;;;;;;;;22.58;56.71;99543.03;3157503;28;19920;-65
2022/06/30 04:49:01;;;;;;;;;;;;;;;22.61;56.32;99550.69;3157530;28;20298;-66
2022/06/30 04:50:33;;;;;;;;;;;;;;;22.64;56.00;99545.91;3156484;28;19927;-66
2022/06/30 04:52:05;;;;;;;;;;;;;;;22.64;55.88;99545.91;3152563;28;19920;-67
2022/06/30 04:53:36;;;;;;;;;;;;;;;22.58;55.98;99551.00;3157783;28;19952;-67
2022/06/30 04:55:08;;;;;;;;;;;;;;;22.58;55.70;99556.28;3158042;28;19920;-67
2022/06/30 04:56:41;;;;;;;;;;;;;;;22.57;55.79;99551.94;3157756;28;19919;-67
2022/06/30 04:58:13;;;;;;;;;;;;;;;22.54;55.79;99541.66;3157553;28;20377;-66
2022/06/30 04:59:44;;;;;;;;;;;;;;;22.52;55.93;99543.63;3158052;28;20387;-66
2022/06/30 05:01:16;;;;;;;;;;;;;;;22.50;56.03;99543.78;3151488;28;20389;-66
2022/06/30 05:02:48;;;;;;;;;;;;;;;22.52;56.13;99538.34;3157878;28;19997;-66
2022/06/30 05:04:20;;;;;;;;;;;;;;;22.54;56.19;99542.50;3157784;28;19985;-66
2022/06/30 05:05:53;;;;;;;;;;;;;;;22.58;56.39;99540.38;3147608;28;19990;-66
2022/06/30 05:07:24;;;;;;;;;;;;;;;22.64;55.85;99539.75;3145509;28;19930;-66
2022/06/30 05:08:56;;;;;;;;;;;;;;;22.69;55.70;99543.63;3145270;28;20379;-66
2022/06/30 05:10:27;;;;;;;;;;;;;;;22.76;55.44;99545.66;3145100;28;19921;-66
2022/06/30 05:12:00;;;;;;;;;;;;;;;22.78;55.37;99539.22;3144774;28;19920;-66
2022/06/30 05:13:32;;;;;;;;;;;;;;;22.86;55.37;99541.09;3144844;28;20333;-66
2022/06/30 05:15:04;;;;;;;;;;;;;;;22.90;55.31;99551.25;3146374;28;20298;-66
2022/06/30 05:16:36;;;;;;;;;;;;;;;22.96;55.25;99539.22;3145591;28;19928;-66
2022/06/30 05:18:07;;;;;;;;;;;;;;;23.04;55.09;99546.38;3146774;28;19921;-66
2022/06/30 05:19:39;;;;;;;;;;;;;;;23.08;54.52;99543.28;3147468;28;19927;-66
2022/06/30 05:21:10;;;;;;;;;;;;;;;23.13;54.27;99550.75;3147634;28;20389;-67
2022/06/30 05:22:42;;;;;;;;;;;;;;;23.17;54.12;99546.81;3147319;28;20588;-66
2022/06/30 05:27:53;;;;;;;;;;;;;;;23.43;53.49;99552.13;3147735;28;20318;-66
2022/06/30 05:29:24;;;;;;;;;;;;;;;23.49;52.63;99556.81;3148528;28;19973;-66
2022/06/30 05:30:56;;;;;;;;;;;;;;;23.59;52.71;99557.50;3147303;28;19959;-66
2022/06/30 05:32:28;;;;;;;;;;;;;;;23.67;52.56;99554.06;3147358;28;20015;-67
2022/06/30 05:33:59;;;;;;;;;;;;;;;23.74;52.64;99555.13;3146624;28;20030;-66
2022/06/30 05:35:31;;;;;;;;;;;;;;;23.81;52.64;99555.31;3147222;28;19931;-66
2022/06/30 05:37:03;;;;;;;;;;;;;;;23.87;52.11;99552.03;3143184;28;19978;-67
2022/06/30 05:38:34;;;;;;;;;;;;;;;23.92;51.79;99551.53;3147187;28;20258;-66
2022/06/30 05:40:06;;;;;;;;;;;;;;;23.92;51.74;99549.69;3147368;28;19996;-66
2022/06/30 05:41:38;;;;;;;;;;;;;;;23.97;51.66;99552.72;3147017;28;19967;-66
2022/06/30 05:43:12;;;;;;;;;;;;;;;24.01;51.41;99562.03;3147264;28;19921;-66
2022/06/30 05:44:45;;;;;;;;;;;;;;;24.06;51.57;99557.06;3151006;28;19978;-67
2022/06/30 05:46:17;;;;;;;;;;;;;;;24.12;51.22;99557.41;3147242;28;19943;-66
2022/06/30 05:47:50;;;;;;;;;;;;;;;24.19;51.26;99564.56;3147169;28;19920;-66
2022/06/30 05:49:21;;;;;;;;;;;;;;;24.29;51.23;99564.44;3146887;28;19924;-66
2022/06/30 05:50:53;;;;;;;;;;;;;;;24.38;51.08;99563.47;3147372;28;19921;-66
2022/06/30 05:52:24;;;;;;;;;;;;;;;24.44;50.57;99562.00;3147315;28;19920;-66
2022/06/30 05:53:56;;;;;;;;;;;;;;;24.49;50.54;99571.16;3147129;28;19929;-66
2022/06/30 05:55:28;;;;;;;;;;;;;;;24.53;50.19;99569.00;3147164;28;20633;-66
2022/06/30 05:56:59;;;;;;;;;;;;;;;24.57;50.58;99565.00;3147457;28;19927;-66
2022/06/30 05:58:32;;;;;;;;;;;;;;;24.62;50.47;99560.03;3147132;28;19924;-66
2022/06/30 06:00:04;;;;;;;;;;;;;;;24.67;50.28;99560.38;3147267;28;19998;-66
2022/06/30 06:01:36;;;;;;;;;;;;;;;24.70;50.21;99570.69;3143381;28;20217;-66
2022/06/30 06:03:08;;;;;;;;;;;;;;;24.73;50.00;99570.34;3147303;28;19920;-66
2022/06/30 06:04:40;;;;;;;;;;;;;;;24.77;49.60;99567.34;3147022;28;19920;-66
2022/06/30 06:06:11;;;;;;;;;;;;;;;24.79;49.46;99562.66;3146652;28;20019;-66
2022/06/30 06:07:43;;;;;;;;;;;;;;;24.81;49.54;99566.84;3146869;28;19921;-66
2022/06/30 06:09:15;;;;;;;;;;;;;;;24.86;49.45;99564.50;3147167;28;20274;-66
2022/06/30 06:10:46;;;;;;;;;;;;;;;24.93;49.59;99564.66;3146514;28;20006;-66
2022/06/30 06:12:18;;;;;;;;;;;;;;;25.01;49.25;99567.34;3150692;28;19981;-66
2022/06/30 06:13:51;;;;;;;;;;;;;;;25.06;49.26;99565.00;3147585;28;19920;-66
2022/06/30 06:15:22;;;;;;;;;;;;;;;25.13;49.19;99563.34;3146719;28;19928;-66
2022/06/30 06:16:54;;;;;;;;;;;;;;;25.20;49.11;99558.16;3147372;28;19997;-66
2022/06/30 06:18:25;;;;;;;;;;;;;;;25.24;48.79;99556.84;3146689;28;19920;-66
2022/06/30 06:19:57;;;;;;;;;;;;;;;25.32;49.10;99558.66;3147052;28;19927;-66
2022/06/30 06:21:29;;;;;;;;;;;;;;;25.38;48.77;99566.00;3146812;28;19920;-66
2022/06/30 06:23:00;;;;;;;;;;;;;;;25.50;48.07;99569.13;3146952;28;19920;-66
2022/06/30 06:24:32;;;;;;;;;;;;;;;25.66;48.22;99569.06;3146937;28;19928;-66
2022/06/30 06:26:03;;;;;;;;;;;;;;;25.77;48.01;99566.03;3147057;28;19931;-66
2022/06/30 06:27:35;;;;;;;;;;;;;;;25.85;47.58;99563.34;3145595;28;19993;-66
2022/06/30 06:29:08;;;;;;;;;;;;;;;25.91;47.52;99566.31;3146701;28;20059;-66
2022/06/30 06:30:39;;;;;;;;;;;;;;;25.95;47.74;99563.13;3146866;28;19959;-67
2022/06/30 06:32:11;;;;;;;;;;;;;;;26.03;47.72;99564.91;3146677;28;20315;-66
2022/06/30 06:33:43;;;;;;;;;;;;;;;26.08;47.32;99568.72;3146878;28;19985;-66
2022/06/30 06:35:15;;;;;;;;;;;;;;;26.16;46.82;99567.03;3146631;28;20420;-66
2022/06/30 06:36:46;;;;;;;;;;;;;;;26.31;47.12;99560.75;3146733;28;19924;-66
2022/06/30 06:38:18;;;;;;;;;;;;;;;26.46;45.68;99570.69;3146792;28;19920;-66
2022/06/30 06:39:50;;;;;;;;;;;;;;;26.62;45.08;99570.59;3146318;28;19989;-66
2022/06/30 06:41:21;;;;;;;;;;;;;;;26.80;44.66;99566.75;3146853;28;19973;-66
2022/06/30 06:42:52;;;;;;;;;;;;;;;26.92;44.16;99563.50;3147114;28;20456;-66
2022/06/30 06:44:25;;;;;;;;;;;;;;;27.03;43.83;99564.88;3146679;28;20286;-66
2022/06/30 06:45:56;;;;;;;;;;;;;;;27.13;44.02;99565.47;3146220;28;19928;-66
2022/06/30 06:47:27;;;;;;;;;;;;;;;27.22;44.13;99571.59;3146693;28;20003;-66
2022/06/30 06:48:59;;;;;;;;;;;;;;;27.31;43.94;99567.84;3146685;28;19924;-66
2022/06/30 06:50:30;;;;;;;;;;;;;;;27.39;44.33;99564.22;3146580;28;19993;-66
2022/06/30 06:52:01;;;;;;;;;;;;;;;27.46;44.57;99562.50;3146296;28;20011;-67
2022/06/30 06:53:33;;;;;;;;;;;;;;;27.54;44.06;99564.22;3146237;28;20957;-66
2022/06/30 06:55:05;;;;;;;;;;;;;;;27.60;43.42;99567.03;3146816;28;20321;-66
2022/06/30 06:56:36;;;;;;;;;;;;;;;27.70;43.07;99557.88;3139801;28;20397;-67
2022/06/30 06:58:10;;;;;;;;;;;;;;;27.80;42.87;99563.78;3145850;28;20341;-66
2022/06/30 06:59:43;;;;;;;;;;;;;;;27.83;42.75;99564.28;3151577;28;19982;-67
2022/06/30 07:01:15;;;;;;;;;;;;;;;27.84;42.56;99557.06;3142406;28;20320;-66
2022/06/30 07:02:46;;;;;;;;;;;;;;;27.85;42.51;99564.06;3146703;28;19928;-66
2022/06/30 07:04:18;;;;;;;;;;;;;;;27.87;42.25;99560.19;3146251;28;19920;-66
2022/06/30 07:05:50;;;;;;;;;;;;;;;27.93;42.08;99557.78;3146119;28;19928;-66
2022/06/30 07:07:21;;;;;;;;;;;;;;;28.04;41.62;99560.81;3146815;28;20049;-66
2022/06/30 07:08:53;;;;;;;;;;;;;;;28.14;41.62;99565.84;3146207;28;20298;-67
2022/06/30 07:10:25;;;;;;;;;;;;;;;28.25;40.58;99565.38;3146462;28;19920;-66
2022/06/30 07:11:57;;;;;;;;;;;;;;;28.29;40.64;99557.78;3147928;28;19925;-66
2022/06/30 07:13:28;;;;;;;;;;;;;;;28.34;40.72;99553.50;3148023;28;19924;-66
2022/06/30 07:15:02;;;;;;;;;;;;;;;28.42;40.67;99557.09;3146660;28;19927;-66
2022/06/30 07:16:33;;;;;;;;;;;;;;;28.39;40.16;99555.59;3146165;28;20366;-66
2022/06/30 07:18:05;;;;;;;;;;;;;;;28.40;40.69;99548.44;3140803;28;19920;-66
2022/06/30 07:19:36;;;;;;;;;;;;;;;28.41;40.83;99548.25;3145855;28;19943;-66
2022/06/30 07:21:08;;;;;;;;;;;;;;;28.42;39.96;99546.41;3146331;28;19920;-66
2022/06/30 07:22:39;;;;;;;;;;;;;;;28.35;40.70;99547.13;3145104;28;19920;-67
2022/06/30 07:24:12;;;;;;;;;;;;;;;28.36;40.81;99543.41;3145099;28;19978;-67
2022/06/30 07:25:43;;;;;;;;;;;;;;;28.42;40.53;99546.41;3145766;28;20003;-66
2022/06/30 07:27:15;;;;;;;;;;;;;;;28.46;40.78;99548.50;3145988;28;19920;-66
2022/06/30 07:28:47;;;;;;;;;;;;;;;28.49;40.16;99547.31;3152543;28;20320;-66
2022/06/30 07:30:20;;;;;;;;;;;;;;;28.50;40.35;99539.06;3145693;28;19939;-66
2022/06/30 07:31:51;;;;;;;;;;;;;;;28.52;39.74;99541.56;3145614;28;19925;-67
2022/06/30 07:33:23;;;;;;;;;;;;;;;28.52;39.62;99533.53;3145778;28;20006;-66
2022/06/30 07:34:54;;;;;;;;;;;;;;;28.53;39.60;99537.84;3145974;28;19954;-66
2022/06/30 07:36:26;;;;;;;;;;;;;;;28.56;39.85;99537.47;3145785;28;20005;-66
2022/06/30 07:37:57;;;;;;;;;;;;;;;28.63;39.70;99530.31;3145784;28;19920;-66
2022/06/30 07:39:29;;;;;;;;;;;;;;;28.74;39.74;99537.81;3145112;28;19928;-66
2022/06/30 07:41:01;;;;;;;;;;;;;;;28.85;40.17;99533.81;3146094;28;20661;-66
2022/06/30 07:42:32;;;;;;;;;;;;;;;28.94;39.86;99531.81;3145166;28;19920;-65
2022/06/30 07:44:04;;;;;;;;;;;;;;;29.04;39.44;99540.34;3147226;28;20348;-65
2022/06/30 07:45:37;;;;;;;;;;;;;;;29.17;39.45;99531.59;3145696;28;20735;-66
2022/06/30 07:47:09;;;;;;;;;;;;;;;29.30;38.75;99531.66;3146021;28;19920;-64
2022/06/30 07:48:40;;;;;;;;;;;;;;;29.45;37.77;99532.38;3145793;28;19924;-67
2022/06/30 07:50:12;;;;;;;;;;;;;;;29.57;37.27;99537.19;3145684;28;19920;-66
2022/06/30 07:51:43;;;;;;;;;;;;;;;29.62;36.78;99537.44;3145442;28;19946;-66
2022/06/30 07:53:15;;;;;;;;;;;;;;;29.69;37.60;99536.44;3145583;28;19928;-66
2022/06/30 07:54:46;;;;;;;;;;;;;;;29.78;37.29;99539.78;3145454;28;20389;-66
2022/06/30 07:56:18;;;;;;;;;;;;;;;29.85;37.31;99542.50;3145511;28;19935;-65
2022/06/30 07:57:50;;;;;;;;;;;;;;;29.92;36.82;99546.03;3145337;28;19920;-65
2022/06/30 07:59:22;;;;;;;;;;;;;;;29.92;36.67;99537.97;3149520;28;20320;-65
2022/06/30 08:00:54;;;;;;;;;;;;;;;29.98;36.55;99533.66;3142332;28;19986;-65
2022/06/30 08:02:26;;;;;;;;;;;;;;;30.04;37.05;99528.31;3145544;28;19931;-67
2022/06/30 08:03:58;;;;;;;;;;;;;;;30.13;37.29;99524.41;3145857;28;19925;-65
2022/06/30 08:05:29;;;;;;;;;;;;;;;30.22;36.66;99527.75;3144802;28;20408;-67
2022/06/30 08:07:03;;;;;;;;;;;;;;;30.33;36.89;99529.03;3145399;28;19924;-65
2022/06/30 08:08:34;;;;;;;;;;;;;;;30.48;37.13;99526.16;3138458;28;19920;-67